Time;durP1;ratioP1;P1;durP2;ratioP2;P2;SDS_P1;SDS_P2;PMS_P1;PMS_P2;Temp;Humidity;BMP_temperature;BMP_pressure;BME280_temperature;BME280_humidity;BME280_pressure;Samples;Min_cycle;Max_cycle;Signal;HPM_P1;HPM_P2
2023/09/26 00:00:31;;;;;;;2.77;2.50;;;;;;;11.69;100.00;97199.69;5042955;28;20204;-54
2023/09/26 00:02:59;;;;;;;3.07;2.67;;;;;;;11.64;100.00;97197.44;5042482;28;20215;-55
2023/09/26 00:05:26;;;;;;;3.40;2.63;;;;;;;11.65;100.00;97196.47;5043197;28;20230;-52
2023/09/26 00:07:54;;;;;;;3.57;2.73;;;;;;;11.65;100.00;97198.25;5042029;28;20302;-54
2023/09/26 00:10:21;;;;;;;4.83;3.33;;;;;;;11.64;100.00;97192.13;5043152;28;20290;-54
2023/09/26 00:12:47;;;;;;;5.67;2.80;;;;;;;11.64;100.00;97200.06;5041997;28;20248;-55
2023/09/26 00:15:15;;;;;;;6.83;2.77;;;;;;;11.65;100.00;97199.09;5042391;28;20203;-55
2023/09/26 00:17:42;;;;;;;3.23;2.93;;;;;;;11.62;100.00;97198.53;5042415;28;20505;-52
2023/09/26 00:20:27;;;;;;;3.17;2.80;;;;;;;11.57;100.00;97206.88;5047088;28;20230;-55
2023/09/26 00:22:54;;;;;;;4.50;2.67;;;;;;;11.52;100.00;97195.84;5042909;28;20609;-55
2023/09/26 00:25:21;;;;;;;3.13;2.90;;;;;;;11.48;100.00;97195.28;5043571;28;20207;-54
2023/09/26 00:27:47;;;;;;;3.03;2.83;;;;;;;11.48;100.00;97197.09;5041690;28;20227;-54
2023/09/26 00:30:16;;;;;;;3.13;2.73;;;;;;;11.50;100.00;97195.16;5043797;28;20231;-54
2023/09/26 00:32:43;;;;;;;4.33;3.20;;;;;;;11.45;100.00;97197.34;5041939;28;20761;-53
2023/09/26 00:35:11;;;;;;;3.63;2.90;;;;;;;11.48;100.00;97186.50;5041661;28;20214;-54
2023/09/26 00:37:38;;;;;;;4.03;2.80;;;;;;;11.47;100.00;97190.13;5042015;28;20200;-55
2023/09/26 00:40:10;;;;;;;4.17;2.83;;;;;;;11.48;100.00;97191.78;5042124;28;20194;-54
2023/09/26 00:42:37;;;;;;;3.70;3.40;;;;;;;11.47;100.00;97196.28;5043391;28;20805;-53
2023/09/26 00:45:05;;;;;;;3.37;3.07;;;;;;;11.44;100.00;97207.09;5042365;28;20871;-54
2023/09/26 00:47:35;;;;;;;3.57;3.27;;;;;;;11.48;100.00;97202.38;5042863;28;20203;-55
2023/09/26 00:50:03;;;;;;;3.60;3.30;;;;;;;11.46;100.00;97209.63;5041730;28;20276;-55
2023/09/26 00:52:29;;;;;;;3.43;2.90;;;;;;;11.44;100.00;97209.75;5043188;28;20691;-59
2023/09/26 00:54:56;;;;;;;4.00;2.97;;;;;;;11.41;100.00;97203.88;5042312;28;20196;-55
2023/09/26 00:57:23;;;;;;;3.50;3.20;;;;;;;11.41;100.00;97202.09;5042552;28;20195;-55
2023/09/26 00:59:49;;;;;;;4.10;3.03;;;;;;;11.38;100.00;97206.81;5041259;28;20234;-54
2023/09/26 01:02:16;;;;;;;3.40;3.10;;;;;;;11.38;100.00;97206.81;5041481;28;20655;-54
2023/09/26 01:04:44;;;;;;;3.57;3.30;;;;;;;11.34;100.00;97208.06;5041152;28;20223;-54
2023/09/26 01:07:10;;;;;;;3.50;3.20;;;;;;;11.35;100.00;97207.94;5042796;28;20210;-53
2023/09/26 01:09:37;;;;;;;4.20;3.47;;;;;;;11.35;100.00;97209.75;5041094;28;20219;-56
2023/09/26 01:12:05;;;;;;;3.33;3.07;;;;;;;11.34;100.00;97208.06;5041612;28;20199;-55
2023/09/26 01:14:32;;;;;;;3.37;3.07;;;;;;;11.35;100.00;97202.63;5041053;28;20203;-53
2023/09/26 01:16:58;;;;;;;4.67;3.67;;;;;;;11.37;100.00;97205.16;5041774;28;20207;-55
2023/09/26 01:19:25;;;;;;;7.47;3.40;;;;;;;11.36;100.00;97198.19;5040847;28;20393;-55
2023/09/26 01:21:53;;;;;;;3.50;3.20;;;;;;;11.35;100.00;97199.97;5041958;28;20237;-53
2023/09/26 01:24:21;;;;;;;3.50;3.20;;;;;;;11.35;100.00;97201.78;5041238;28;20230;-55
2023/09/26 01:26:47;;;;;;;3.97;3.43;;;;;;;11.37;100.00;97207.81;5041081;28;20207;-53
2023/09/26 01:29:14;;;;;;;3.77;3.20;;;;;;;11.35;100.00;97207.94;5041579;28;20226;-53
2023/09/26 01:31:41;;;;;;;3.67;3.37;;;;;;;11.34;100.00;97216.00;5040984;28;20212;-56
2023/09/26 01:34:07;;;;;;;3.73;3.10;;;;;;;11.33;100.00;97209.03;5040657;28;20219;-53
2023/09/26 01:36:34;;;;;;;3.70;3.30;;;;;;;11.30;100.00;97201.38;5042346;28;20218;-53
2023/09/26 01:39:00;;;;;;;5.90;3.23;;;;;;;11.30;100.00;97196.88;5041499;28;20206;-53
2023/09/26 01:41:28;;;;;;;4.60;3.20;;;;;;;11.29;100.00;97194.41;5041377;28;20214;-52
2023/09/26 01:43:55;;;;;;;3.83;3.30;;;;;;;11.23;100.00;97198.41;5042013;28;20218;-53
2023/09/26 01:46:22;;;;;;;3.67;3.37;;;;;;;11.21;100.00;97194.22;5041443;28;20231;-55
2023/09/26 01:48:48;;;;;;;4.13;3.13;;;;;;;11.18;100.00;97191.84;5040797;28;20737;-55
2023/09/26 01:51:15;;;;;;;4.13;3.43;;;;;;;11.11;100.00;97193.34;5042372;28;20211;-52
2023/09/26 01:53:42;;;;;;;5.03;3.17;;;;;;;11.09;100.00;97200.59;5041753;28;20211;-54
2023/09/26 01:56:08;;;;;;;3.47;3.13;;;;;;;11.08;100.00;97204.19;5042118;28;20218;-54
2023/09/26 01:58:36;;;;;;;4.50;3.20;;;;;;;11.06;100.00;97200.81;5041460;28;20199;-54
2023/09/26 02:01:03;;;;;;;4.60;3.30;;;;;;;11.05;100.00;97199.19;5043794;28;20521;-54
2023/09/26 02:03:29;;;;;;;3.93;3.20;;;;;;;11.04;100.00;97200.13;5040984;28;20207;-55
2023/09/26 02:05:58;;;;;;;4.50;3.40;;;;;;;11.01;100.00;97203.06;5045358;28;20223;-54
2023/09/26 02:08:24;;;;;;;3.60;3.30;;;;;;;10.99;100.00;97206.66;5045422;28;20222;-54
2023/09/26 02:10:51;;;;;;;4.07;3.37;;;;;;;10.96;100.00;97203.44;5044868;28;20528;-54
2023/09/26 02:13:18;;;;;;;3.67;3.37;;;;;;;10.95;100.00;97196.47;5044786;28;20207;-55
2023/09/26 02:15:45;;;;;;;4.27;3.73;;;;;;;10.93;100.00;97206.34;5045051;28;20202;-55
2023/09/26 02:18:12;;;;;;;4.63;2.93;;;;;;;10.94;100.00;97208.03;5044598;28;20214;-54
2023/09/26 02:20:41;;;;;;;4.10;3.37;;;;;;;10.94;100.00;97219.47;5044724;28;20203;-54
2023/09/26 02:23:07;;;;;;;5.60;3.20;;;;;;;10.92;100.00;97213.44;5044672;28;20222;-55
2023/09/26 02:25:34;;;;;;;4.90;3.10;;;;;;;10.93;100.00;97212.50;5044415;28;20195;-55
2023/09/26 02:28:00;;;;;;;4.70;3.50;;;;;;;10.92;100.00;97210.81;5044697;28;20227;-55
2023/09/26 02:30:28;;;;;;;4.10;3.63;;;;;;;10.88;100.00;97209.38;5044703;28;20315;-53
2023/09/26 02:32:56;;;;;;;3.57;3.23;;;;;;;10.83;100.00;97211.59;5044221;28;20212;-54
2023/09/26 02:35:23;;;;;;;4.33;3.57;;;;;;;10.83;100.00;97206.31;5044013;28;20206;-55
2023/09/26 02:37:49;;;;;;;4.53;3.80;;;;;;;10.79;100.00;97196.09;5044701;28;20218;-54
2023/09/26 02:40:16;;;;;;;6.27;3.20;;;;;;;10.78;100.00;97197.91;5044356;28;20208;-55
2023/09/26 02:42:44;;;;;;;4.30;3.10;;;;;;;10.83;100.00;97195.72;5044181;28;20222;-54
2023/09/26 02:45:11;;;;;;;6.83;3.40;;;;;;;10.84;100.00;97197.38;5044258;28;20596;-54
2023/09/26 02:47:38;;;;;;;4.30;3.37;;;;;;;10.85;100.00;97200.88;5045458;28;20238;-55
2023/09/26 02:50:07;;;;;;;8.43;3.67;;;;;;;10.83;100.00;97201.00;5043189;28;20607;-51
2023/09/26 02:52:34;;;;;;;4.17;3.87;;;;;;;10.78;100.00;97205.84;5045335;28;20690;-54
2023/09/26 02:55:01;;;;;;;4.20;3.77;;;;;;;10.74;100.00;97201.78;5043514;28;20286;-55
2023/09/26 02:57:28;;;;;;;4.07;3.60;;;;;;;10.75;100.00;97198.19;5043727;28;20643;-55
2023/09/26 02:59:54;;;;;;;4.73;3.90;;;;;;;10.75;100.00;97192.03;5043805;28;20199;-53
2023/09/26 03:02:21;;;;;;;4.77;3.77;;;;;;;10.74;100.00;97193.84;5044224;28;20199;-56
2023/09/26 03:04:48;;;;;;;5.57;3.90;;;;;;;10.75;100.00;97187.59;5043928;28;20551;-54
2023/09/26 03:07:16;;;;;;;5.33;3.33;;;;;;;10.71;100.00;97191.47;5045278;28;20234;-53
2023/09/26 03:09:43;;;;;;;4.00;3.50;;;;;;;10.75;100.00;97187.59;5043485;28;20219;-54
2023/09/26 03:12:09;;;;;;;3.80;3.50;;;;;;;10.72;100.00;97187.88;5043587;28;20214;-57
2023/09/26 03:14:35;;;;;;;4.33;3.20;;;;;;;10.70;100.00;97181.84;5043623;28;20199;-54
2023/09/26 03:17:05;;;;;;;3.80;3.47;;;;;;;10.68;100.00;97169.72;5043628;28;20215;-54
2023/09/26 03:19:32;;;;;;;5.87;3.80;;;;;;;10.63;100.00;97183.34;5043178;28;20202;-54
2023/09/26 03:21:58;;;;;;;3.97;3.60;;;;;;;10.68;100.00;97169.72;5043757;28;20199;-53
2023/09/26 03:24:26;;;;;;;4.03;3.63;;;;;;;10.65;100.00;97165.53;5043335;28;20208;-53
2023/09/26 03:26:52;;;;;;;5.70;3.50;;;;;;;10.61;100.00;97174.72;5043644;28;20227;-54
2023/09/26 03:29:19;;;;;;;4.17;3.77;;;;;;;10.62;100.00;97173.75;5043567;28;20230;-55
2023/09/26 03:31:46;;;;;;;4.23;3.93;;;;;;;10.58;100.00;97169.69;5042934;28;20211;-54
2023/09/26 03:34:12;;;;;;;4.53;3.67;;;;;;;10.61;100.00;97173.88;5042555;28;20203;-55
2023/09/26 03:36:39;;;;;;;5.40;3.43;;;;;;;10.61;100.00;97168.56;5043930;28;20218;-54
2023/09/26 03:39:06;;;;;;;4.10;3.70;;;;;;;10.58;100.00;97172.31;5042806;28;20204;-54
2023/09/26 03:41:34;;;;;;;6.87;3.77;;;;;;;10.58;100.00;97172.31;5043017;28;20212;-53
2023/09/26 03:44:00;;;;;;;3.43;3.23;;;;;;;10.50;100.00;97166.84;5042635;28;20218;-54
2023/09/26 03:46:27;;;;;;;3.13;2.93;;;;;;;10.48;100.00;97177.56;5043761;28;20215;-54
2023/09/26 03:48:53;;;;;;;3.87;3.40;;;;;;;10.42;100.00;97174.56;5043059;28;20203;-54
2023/09/26 03:51:20;;;;;;;4.33;3.30;;;;;;;10.37;100.00;97176.78;5043948;28;20631;-55
2023/09/26 03:53:47;;;;;;;3.83;3.40;;;;;;;10.38;100.00;97170.53;5044485;28;20219;-53
2023/09/26 03:56:13;;;;;;;4.80;3.83;;;;;;;10.35;100.00;97179.53;5043476;28;20778;-53
2023/09/26 03:58:41;;;;;;;4.20;3.80;;;;;;;10.35;100.00;97182.19;5043365;28;20532;-56
2023/09/26 04:01:09;;;;;;;3.47;3.13;;;;;;;10.35;100.00;97181.34;5045381;28;20195;-53
2023/09/26 04:03:36;;;;;;;4.17;3.70;;;;;;;10.36;100.00;97170.66;5043793;28;20532;-54
2023/09/26 04:06:02;;;;;;;5.23;3.20;;;;;;;10.44;100.00;97177.94;5044510;28;20302;-54
2023/09/26 04:08:29;;;;;;;3.77;3.47;;;;;;;10.44;100.00;97183.22;5044981;28;20218;-54
2023/09/26 04:10:55;;;;;;;3.70;3.40;;;;;;;10.36;100.00;97178.59;5045032;28;20276;-54
2023/09/26 04:13:22;;;;;;;4.40;3.43;;;;;;;10.42;100.00;97182.50;5043773;28;20200;-54
2023/09/26 04:15:50;;;;;;;6.83;2.93;;;;;;;10.35;100.00;97179.53;5044213;28;20198;-55
2023/09/26 04:18:17;;;;;;;3.57;3.27;;;;;;;10.34;100.00;97177.88;5044252;28;20261;-55
2023/09/26 04:20:44;;;;;;;5.87;3.50;;;;;;;10.33;100.00;97181.50;5044135;28;20215;-53
2023/09/26 04:23:11;;;;;;;3.80;3.50;;;;;;;10.29;100.00;97181.88;5044109;28;20211;-55
2023/09/26 04:25:38;;;;;;;3.80;3.47;;;;;;;10.29;100.00;97181.88;5043320;28;20229;-55
2023/09/26 04:28:05;;;;;;;3.80;3.50;;;;;;;10.29;100.00;97180.06;5041229;28;20246;-51
2023/09/26 04:30:36;;;;;;;4.33;3.73;;;;;;;10.29;100.00;97173.94;5041984;28;20215;-53
2023/09/26 04:33:04;;;;;;;4.10;3.33;;;;;;;10.29;100.00;97180.06;5042432;28;20739;-51
2023/09/26 04:35:31;;;;;;;5.57;3.53;;;;;;;10.26;100.00;97172.41;5042451;28;20211;-52
2023/09/26 04:37:57;;;;;;;4.00;3.70;;;;;;;10.20;100.00;97172.06;5042345;28;20203;-53
2023/09/26 04:40:24;;;;;;;6.13;3.10;;;;;;;10.24;100.00;97173.47;5041888;28;20202;-53
2023/09/26 04:42:51;;;;;;;4.33;3.93;;;;;;;10.27;100.00;97175.88;5042373;28;20207;-55
2023/09/26 04:45:18;;;;;;;4.77;3.67;;;;;;;10.28;100.00;97172.25;5043808;28;20302;-53
2023/09/26 04:47:44;;;;;;;6.77;3.60;;;;;;;10.29;100.00;97179.22;5042107;28;20206;-54
2023/09/26 04:50:13;;;;;;;3.50;3.20;;;;;;;10.28;100.00;97182.81;5041426;28;20238;-53
2023/09/26 04:52:39;;;;;;;4.23;3.87;;;;;;;10.22;100.00;97178.91;5042385;28;20290;-54
2023/09/26 04:55:06;;;;;;;6.40;3.70;;;;;;;10.20;100.00;97190.56;5041785;28;20199;-55
2023/09/26 04:57:33;;;;;;;6.17;4.07;;;;;;;10.18;100.00;97181.91;5042314;28;20207;-58
2023/09/26 04:59:59;;;;;;;6.77;3.63;;;;;;;10.18;100.00;97187.19;5042162;28;20196;-61
2023/09/26 05:02:26;;;;;;;4.53;3.67;;;;;;;10.22;100.00;97188.63;5044789;28;20208;-55
2023/09/26 05:04:52;;;;;;;3.87;3.50;;;;;;;10.19;100.00;97187.09;5043580;28;20222;-57
2023/09/26 05:07:20;;;;;;;5.23;3.93;;;;;;;10.11;100.00;97183.34;5042452;28;20203;-53
2023/09/26 05:09:47;;;;;;;5.80;4.00;;;;;;;10.12;100.00;97182.41;5042653;28;20667;-55
2023/09/26 05:12:13;;;;;;;3.63;3.30;;;;;;;10.04;100.00;97180.38;5042329;28;20845;-55
2023/09/26 05:14:39;;;;;;;4.10;3.80;;;;;;;10.02;100.00;97185.78;5041745;28;20207;-55
2023/09/26 05:17:06;;;;;;;5.13;3.60;;;;;;;10.11;100.00;97186.00;5041677;28;20211;-54
2023/09/26 05:19:32;;;;;;;4.70;3.77;;;;;;;10.12;100.00;97187.69;5041080;28;20208;-55
2023/09/26 05:21:59;;;;;;;4.07;3.77;;;;;;;10.14;100.00;97185.75;5042935;28;20206;-54
2023/09/26 05:24:27;;;;;;;4.03;3.73;;;;;;;10.12;100.00;97190.31;5040784;28;20199;-53
2023/09/26 05:26:54;;;;;;;4.13;3.70;;;;;;;10.08;100.00;97184.47;5041189;28;20206;-52
2023/09/26 05:29:21;;;;;;;4.90;3.60;;;;;;;10.09;100.00;97185.28;5041622;28;20583;-53
2023/09/26 05:31:48;;;;;;;4.10;3.80;;;;;;;10.12;100.00;97195.59;5040939;28;20239;-55
2023/09/26 05:34:14;;;;;;;5.53;3.97;;;;;;;10.10;100.00;97189.59;5040066;28;20931;-62
2023/09/26 05:36:43;;;;;;;4.30;3.90;;;;;;;10.15;100.00;97198.03;5040951;28;20199;-54
2023/09/26 05:39:10;;;;;;;3.93;3.63;;;;;;;10.19;100.00;97196.81;5041189;28;20552;-55
2023/09/26 05:41:38;;;;;;;4.80;3.70;;;;;;;10.23;100.00;97192.94;5045032;28;20623;-53
2023/09/26 05:44:05;;;;;;;4.93;4.23;;;;;;;10.25;100.00;97198.94;5044996;28;20203;-53
2023/09/26 05:46:32;;;;;;;4.80;4.07;;;;;;;10.22;100.00;97197.41;5044625;28;20655;-54
2023/09/26 05:48:58;;;;;;;7.10;5.77;;;;;;;10.29;100.00;97198.56;5044403;28;20204;-55
2023/09/26 05:51:25;;;;;;;8.27;6.37;;;;;;;10.35;100.00;97202.50;5045094;28;20239;-55
2023/09/26 05:53:51;;;;;;;9.43;6.13;;;;;;;10.43;100.00;97202.69;5044976;28;20207;-55
2023/09/26 05:56:17;;;;;;;5.73;4.30;;;;;;;10.49;100.00;97210.09;5045040;28;20218;-54
2023/09/26 05:58:46;;;;;;;5.97;4.33;;;;;;;10.60;100.00;97210.03;5044450;28;20212;-53
2023/09/26 06:01:13;;;;;;;7.60;4.80;;;;;;;10.69;100.00;97209.28;5044448;28;20223;-54
2023/09/26 06:03:40;;;;;;;7.27;4.60;;;;;;;10.76;100.00;97207.78;5043991;28;20219;-55
2023/09/26 06:06:06;;;;;;;5.67;4.73;;;;;;;10.79;100.00;97207.53;5045219;28;20207;-55
2023/09/26 06:08:34;;;;;;;5.27;4.70;;;;;;;10.87;100.00;97218.31;5044326;28;20211;-54
2023/09/26 06:11:02;;;;;;;5.23;4.73;;;;;;;10.94;100.00;97216.81;5044328;28;20223;-54
2023/09/26 06:13:28;;;;;;;6.30;4.83;;;;;;;11.02;100.00;97220.63;5044431;28;20203;-55
2023/09/26 06:15:56;;;;;;;5.73;4.70;;;;;;;11.11;100.00;97222.47;5044364;28;20282;-52
2023/09/26 06:18:23;;;;;;;4.90;4.40;;;;;;;11.18;100.00;97227.09;5044145;28;20207;-55
2023/09/26 06:20:50;;;;;;;5.23;4.73;;;;;;;11.27;100.00;97228.09;5044305;28;20223;-54
2023/09/26 06:23:16;;;;;;;5.33;4.83;;;;;;;11.33;100.00;97222.28;5044330;28;20682;-56
2023/09/26 06:25:43;;;;;;;6.27;4.80;;;;;;;11.38;100.00;97228.00;5044220;28;20203;-54
2023/09/26 06:28:10;;;;;;;5.00;4.50;;;;;;;11.46;100.00;97228.19;5044154;28;20234;-54
2023/09/26 06:30:36;;;;;;;8.30;5.63;;;;;;;11.53;100.00;97228.47;5044736;28;20215;-53
2023/09/26 06:33:04;;;;;;;7.80;5.13;;;;;;;11.59;100.00;97231.41;5044497;28;20298;-54
2023/09/26 06:35:32;;;;;;;6.37;5.23;;;;;;;11.63;100.00;97232.81;5043656;28;20234;-55
2023/09/26 06:37:59;;;;;;;7.10;5.20;;;;;;;11.65;100.00;97220.31;5044371;28;20269;-54
2023/09/26 06:40:25;;;;;;;5.97;5.47;;;;;;;11.71;100.00;97222.44;5043871;28;20204;-54
2023/09/26 06:42:52;;;;;;;7.93;6.10;;;;;;;11.79;100.00;97217.31;5044031;28;20533;-54
2023/09/26 06:45:18;;;;;;;8.40;6.50;;;;;;;11.81;100.00;97225.09;5043527;28;20199;-54
2023/09/26 06:47:45;;;;;;;10.40;7.37;;;;;;;11.84;100.00;97223.00;5044252;28;20207;-54
2023/09/26 06:50:13;;;;;;;9.93;6.97;;;;;;;11.88;100.00;97221.75;5042742;28;20305;-54
2023/09/26 06:52:40;;;;;;;10.80;7.07;;;;;;;11.94;100.00;97223.00;5043505;28;20538;-54
2023/09/26 06:55:10;;;;;;;12.60;7.87;;;;;;;12.01;100.00;97232.09;5043109;28;20636;-55
2023/09/26 06:57:36;;;;;;;16.00;9.20;;;;;;;12.04;100.00;97223.06;5044158;28;20566;-55
2023/09/26 07:00:11;;;;;;;11.10;7.77;;;;;;;12.13;100.00;97225.69;5043502;28;20200;-54
2023/09/26 07:02:39;;;;;;;10.37;7.80;;;;;;;12.21;100.00;97223.22;5043332;28;20702;-54
2023/09/26 07:05:06;;;;;;;13.27;8.70;;;;;;;12.32;100.00;97224.88;5043621;28;20215;-55
2023/09/26 07:07:34;;;;;;;11.37;8.60;;;;;;;12.35;100.00;97229.91;5042749;28;20624;-55
2023/09/26 07:10:01;;;;;;;10.03;7.93;;;;;;;12.45;100.00;97226.28;5043439;28;20211;-55
2023/09/26 07:12:28;;;;;;;15.33;10.00;;;;;;;12.51;100.00;97222.22;5043194;28;20207;-54
2023/09/26 07:14:56;;;;;;;10.23;9.23;;;;;;;12.62;100.00;97222.06;5043476;28;20199;-53
2023/09/26 07:17:22;;;;;;;11.03;8.37;;;;;;;12.71;100.00;97223.88;5042715;28;20761;-55
2023/09/26 07:19:49;;;;;;;10.40;9.50;;;;;;;12.80;100.00;97225.66;5042630;28;20544;-54
2023/09/26 07:22:16;;;;;;;11.10;10.00;;;;;;;12.91;100.00;97225.50;5043311;28;20211;-54
2023/09/26 07:24:48;;;;;;;9.40;8.60;;;;;;;13.02;100.00;97219.19;5042910;28;20208;-55
2023/09/26 07:27:15;;;;;;;9.63;8.80;;;;;;;13.17;100.00;97214.28;5042971;28;20243;-54
2023/09/26 07:29:45;;;;;;;10.03;9.17;;;;;;;13.30;100.00;97222.75;5043499;28;20195;-54
2023/09/26 07:32:11;;;;;;;10.77;9.70;;;;;;;13.40;100.00;97221.75;5043280;28;20227;-54
2023/09/26 07:34:38;;;;;;;10.20;9.20;;;;;;;13.55;100.00;97224.75;5042870;28;20207;-54
2023/09/26 07:37:04;;;;;;;10.40;9.50;;;;;;;13.65;100.00;97216.72;5043231;28;20199;-56
2023/09/26 07:39:31;;;;;;;10.10;9.17;;;;;;;13.73;100.00;97222.16;5043149;28;20199;-56
2023/09/26 07:41:59;;;;;;;11.30;10.10;;;;;;;13.77;100.00;97227.03;5042986;28;20661;-55
2023/09/26 07:44:25;;;;;;;10.20;9.30;;;;;;;13.91;100.00;97220.38;5042909;28;20316;-55
2023/09/26 07:46:51;;;;;;;10.27;9.43;;;;;;;14.04;100.00;97230.63;5042738;28;20207;-53
2023/09/26 07:49:18;;;;;;;9.32;8.45;;;;;;;14.07;100.00;97230.31;5042470;28;20212;-55
2023/09/26 07:51:44;;;;;;;8.60;7.90;;;;;;;14.20;100.00;97228.16;5042486;28;20236;-54
2023/09/26 07:54:11;;;;;;;9.25;8.32;;;;;;;14.31;100.00;97231.41;5042724;28;20222;-54
2023/09/26 07:56:37;;;;;;;9.67;8.87;;;;;;;14.30;100.00;97219.13;5042569;28;20294;-54
2023/09/26 07:59:05;;;;;;;8.98;8.27;;;;;;;14.36;100.00;97217.69;5042824;28;20200;-53
2023/09/26 08:01:32;;;;;;;8.93;7.57;;;;;;;14.39;100.00;97220.03;5042012;28;20196;-55
2023/09/26 08:03:59;;;;;;;9.23;8.15;;;;;;;14.42;100.00;97214.41;5042311;28;20284;-55
2023/09/26 08:06:25;;;;;;;9.70;8.73;;;;;;;14.48;100.00;97218.31;5042871;28;20203;-55
2023/09/26 08:08:52;;;;;;;9.32;8.48;;;;;;;14.40;100.00;97211.91;5042133;28;20207;-55
2023/09/26 08:11:21;;;;;;;9.85;8.95;;;;;;;14.42;100.00;97211.75;5042787;28;20304;-54
2023/09/26 08:13:47;;;;;;;9.02;8.23;;;;;;;14.43;100.00;97213.44;5043064;28;20210;-54
2023/09/26 08:16:15;;;;;;;8.23;7.43;;;;;;;14.40;100.00;97213.75;5042191;28;20199;-53
2023/09/26 08:18:42;;;;;;;8.83;7.93;;;;;;;14.40;100.00;97217.25;5041590;28;20195;-55
2023/09/26 08:21:08;;;;;;;8.77;7.97;;;;;;;14.41;100.00;97210.94;5042311;28;20203;-55
2023/09/26 08:23:35;;;;;;;9.27;7.80;;;;;;;14.42;100.00;97217.06;5041831;28;20210;-54
2023/09/26 08:26:03;;;;;;;8.68;7.88;;;;;;;14.49;100.00;97218.13;5042248;28;20217;-53
2023/09/26 08:28:31;;;;;;;8.35;7.45;;;;;;;14.55;100.00;97217.53;5041946;28;20242;-54
2023/09/26 08:31:05;;;;;;;8.38;7.45;;;;;;;14.62;100.00;97218.59;5041955;28;20228;-55
2023/09/26 08:33:33;;;;;;;8.75;7.95;;;;;;;14.68;100.00;97217.97;5041493;28;20235;-55
2023/09/26 08:35:59;;;;;;;10.25;8.63;;;;;;;14.75;100.00;97224.34;5041594;28;20214;-55
2023/09/26 08:38:25;;;;;;;9.60;8.70;;;;;;;14.85;100.00;97217.09;5041701;28;20203;-55
2023/09/26 08:40:52;;;;;;;9.80;8.90;;;;;;;14.92;100.00;97215.47;5041770;28;20195;-53
2023/09/26 08:43:24;;;;;;;10.27;9.27;;;;;;;14.97;100.00;97216.84;5041379;28;20207;-54
2023/09/26 08:45:50;;;;;;;10.90;9.85;;;;;;;15.06;100.00;97223.88;5041611;28;20207;-55
2023/09/26 08:48:17;;;;;;;10.48;9.48;;;;;;;15.21;100.00;97225.81;5041300;28;20207;-55
2023/09/26 08:50:46;;;;;;;9.18;8.27;;;;;;;15.33;100.00;97219.25;5041733;28;20192;-55
2023/09/26 08:53:13;;;;;;;9.98;8.90;;;;;;;15.58;100.00;97225.56;5041730;28;20626;-54
2023/09/26 08:55:40;;;;;;;10.75;9.73;;;;;;;15.82;100.00;97219.47;5041433;28;20208;-55
2023/09/26 08:58:07;;;;;;;11.82;9.35;;;;;;;15.99;100.00;97215.03;5041410;28;20515;-55
2023/09/26 09:00:33;;;;;;;10.88;9.75;;;;;;;16.23;100.00;97217.75;5042062;28;20653;-55
2023/09/26 09:02:59;;;;;;;10.73;9.77;;;;;;;16.31;100.00;97212.44;5041417;28;20486;-55
2023/09/26 09:05:26;;;;;;;11.18;9.32;;;;;;;16.53;100.00;97209.13;5041328;28;20651;-54
2023/09/26 09:07:54;;;;;;;9.23;8.43;;;;;;;16.75;100.00;97211.16;5041421;28;20206;-56
2023/09/26 09:10:21;;;;;;;10.73;9.60;;;;;;;16.95;100.00;97214.31;5042093;28;20192;-54
2023/09/26 09:12:50;;;;;;;11.23;8.85;;;;;;;17.16;100.00;97203.09;5041437;28;20242;-54
2023/09/26 09:15:21;;;;;;;9.68;8.50;;;;;;;17.55;100.00;97205.81;5041412;28;20691;-55
2023/09/26 09:17:48;;;;;;;9.43;8.52;;;;;;;17.82;100.00;97198.22;5042060;28;20207;-54
2023/09/26 09:20:16;;;;;;;9.45;8.57;;;;;;;18.04;100.00;97198.44;5048848;28;20227;-55
2023/09/26 09:22:46;;;;;;;9.43;8.50;;;;;;;18.15;100.00;97190.00;5043763;28;20644;-56
2023/09/26 09:25:15;;;;;;;8.85;8.05;;;;;;;18.42;100.00;97194.88;5042599;28;20232;-56
2023/09/26 09:27:43;;;;;;;11.45;10.35;;;;;;;18.75;100.00;97185.56;5043884;28;20226;-55
2023/09/26 09:30:12;;;;;;;8.88;8.00;;;;;;;18.59;100.00;97188.41;5044215;28;20651;-55
2023/09/26 09:32:40;;;;;;;8.88;7.35;;;;;;;18.92;100.00;97185.44;5041547;28;20216;-56
2023/09/26 09:35:09;;;;;;;9.20;8.30;;;;;;;19.31;100.00;97183.34;5041026;28;20609;-55
2023/09/26 09:37:36;;;;;;;8.52;7.75;;;;;;;19.48;98.68;97184.88;5041561;28;20191;-55
2023/09/26 09:40:04;;;;;;;9.13;7.50;;;;;;;19.68;97.70;97188.66;5040714;28;20512;-55
2023/09/26 09:42:32;;;;;;;8.48;7.30;;;;;;;19.84;96.04;97187.59;5044780;28;20216;-54
2023/09/26 09:44:59;;;;;;;7.78;6.97;;;;;;;19.96;95.91;97186.13;5046944;28;20235;-55
2023/09/26 09:47:25;;;;;;;7.60;6.32;;;;;;;20.37;94.36;97178.31;5046374;28;20199;-56
2023/09/26 09:49:52;;;;;;;7.60;6.80;;;;;;;20.55;92.85;97175.19;5042194;28;20211;-54
2023/09/26 09:52:20;;;;;;;7.70;6.90;;;;;;;20.47;90.49;97172.66;5040864;28;20234;-56
2023/09/26 09:54:47;;;;;;;7.43;6.68;;;;;;;20.39;90.62;97175.47;5043298;28;20231;-55
2023/09/26 09:57:17;;;;;;;7.30;6.45;;;;;;;20.66;90.28;97175.50;5041397;28;20223;-54
2023/09/26 09:59:45;;;;;;;7.80;6.50;;;;;;;20.92;86.90;97171.41;5040175;28;20239;-55
2023/09/26 10:02:15;;;;;;;7.00;5.90;;;;;;;21.04;86.97;97164.47;5040935;28;20208;-54
2023/09/26 10:04:43;;;;;;;8.18;6.20;;;;;;;21.00;86.57;97163.19;5040560;28;20548;-56
2023/09/26 10:07:10;;;;;;;9.52;6.47;;;;;;;21.25;86.46;97167.13;5041244;28;20218;-55
2023/09/26 10:09:37;;;;;;;6.85;6.15;;;;;;;21.37;84.81;97159.31;5040396;28;20199;-55
2023/09/26 10:12:04;;;;;;;7.60;6.78;;;;;;;21.43;85.05;97161.25;5040647;28;20223;-56
2023/09/26 10:14:32;;;;;;;6.60;6.00;;;;;;;21.62;85.31;97155.94;5041026;28;20230;-56
2023/09/26 10:17:02;;;;;;;6.43;5.63;;;;;;;21.95;86.88;97152.59;5041288;28;20558;-56
2023/09/26 10:19:29;;;;;;;7.40;6.70;;;;;;;21.92;81.37;97150.31;5040640;28;20623;-54
2023/09/26 10:22:14;;;;;;;6.82;6.22;;;;;;;21.83;79.56;97150.44;5041434;28;20208;-55
2023/09/26 10:24:48;;;;;;;12.25;6.97;;;;;;;21.62;83.28;97142.50;5041175;28;20207;-55
2023/09/26 10:27:23;;;;;;;8.57;6.15;;;;;;;21.36;79.29;97147.75;5044775;28;20235;-54
2023/09/26 10:29:52;;;;;;;6.32;5.72;;;;;;;21.31;81.76;97152.88;5045451;28;20261;-55
2023/09/26 10:32:30;;;;;;;6.88;5.75;;;;;;;21.55;82.96;97147.00;5044677;28;20220;-55
2023/09/26 10:34:58;;;;;;;9.25;6.60;;;;;;;21.67;78.29;97142.75;5044549;28;20199;-56
2023/09/26 10:37:26;;;;;;;7.65;6.32;;;;;;;21.55;78.99;97138.94;5043983;28;20207;-54
2023/09/26 10:39:53;;;;;;;7.07;6.22;;;;;;;21.91;81.74;97130.63;5044702;28;20211;-55
2023/09/26 10:42:20;;;;;;;7.30;5.68;;;;;;;22.06;78.90;97125.09;5044230;28;20207;-56
2023/09/26 10:44:49;;;;;;;7.00;5.97;;;;;;;21.84;77.69;97122.50;5044800;28;20219;-55
2023/09/26 10:47:16;;;;;;;8.80;5.90;;;;;;;21.92;79.32;97131.47;5044305;28;20212;-55
2023/09/26 10:49:44;;;;;;;6.75;5.57;;;;;;;22.22;83.34;97130.09;5044120;28;20289;-56
2023/09/26 10:52:12;;;;;;;6.80;6.20;;;;;;;22.29;79.50;97128.22;5043409;28;20320;-55
2023/09/26 10:54:41;;;;;;;10.25;6.03;;;;;;;22.24;78.32;97123.47;5044452;28;20210;-55
2023/09/26 10:57:08;;;;;;;7.00;6.30;;;;;;;22.45;79.59;97125.16;5045040;28;20298;-56
2023/09/26 10:59:35;;;;;;;8.30;5.78;;;;;;;22.61;79.75;97126.63;5044006;28;20208;-55
2023/09/26 11:02:04;;;;;;;6.57;5.95;;;;;;;22.51;78.65;97121.63;5044293;28;20207;-55
2023/09/26 11:04:32;;;;;;;6.35;5.53;;;;;;;22.76;76.91;97121.88;5044152;28;20203;-56
2023/09/26 11:07:00;;;;;;;5.88;5.38;;;;;;;22.95;76.30;97122.94;5044545;28;20648;-55
2023/09/26 11:09:28;;;;;;;7.07;5.63;;;;;;;22.95;77.09;97117.53;5043992;28;20227;-56
2023/09/26 11:11:56;;;;;;;6.15;5.43;;;;;;;23.25;75.06;97118.72;5043447;28;20220;-55
2023/09/26 11:14:22;;;;;;;6.40;5.80;;;;;;;23.37;72.77;97117.03;5043382;28;20284;-55
2023/09/26 11:16:49;;;;;;;6.25;5.63;;;;;;;23.55;74.02;97124.50;5043157;28;20655;-56
2023/09/26 11:19:16;;;;;;;6.18;5.57;;;;;;;23.99;71.75;97115.56;5042767;28;20232;-54
2023/09/26 11:21:42;;;;;;;9.45;5.65;;;;;;;24.20;69.36;97104.47;5043483;28;20511;-56
2023/09/26 11:24:20;;;;;;;6.85;5.60;;;;;;;24.36;68.24;97109.38;5042755;28;20647;-56